createdAt,value
2018-10-07T00:01:17.387Z,1.73
2018-10-07T00:03:45.914Z,1.70
2018-10-07T00:06:14.507Z,1.40
2018-10-07T00:08:43.043Z,2.03
2018-10-07T00:11:11.595Z,1.70
2018-10-07T00:13:40.184Z,1.17
2018-10-07T00:16:08.778Z,2.27
2018-10-07T00:18:37.367Z,1.87
2018-10-07T00:21:05.987Z,1.70
2018-10-07T00:23:34.527Z,1.80
2018-10-07T00:26:03.550Z,1.60
2018-10-07T00:28:32.135Z,1.13
2018-10-07T00:31:00.701Z,1.23
2018-10-07T00:33:29.237Z,1.47
2018-10-07T00:35:57.823Z,1.80
2018-10-07T00:38:26.394Z,1.30
2018-10-07T00:40:55.046Z,1.60
2018-10-07T00:43:23.581Z,1.63
2018-10-07T00:45:52.164Z,2.17
2018-10-07T00:48:20.776Z,1.80
2018-10-07T00:50:49.367Z,1.57
2018-10-07T00:53:17.952Z,1.83
2018-10-07T00:55:46.546Z,1.63
2018-10-07T00:58:15.210Z,2.13
2018-10-07T01:00:43.787Z,1.70
2018-10-07T01:03:12.371Z,1.90
2018-10-07T01:05:40.957Z,1.70
2018-10-07T01:08:09.544Z,2.23
2018-10-07T01:10:38.031Z,2.00
2018-10-07T01:13:06.737Z,1.80
2018-10-07T01:15:35.351Z,1.63
2018-10-07T01:18:03.909Z,2.30
2018-10-07T01:20:32.404Z,1.50
2018-10-07T01:23:02.405Z,1.90
2018-10-07T01:25:30.908Z,1.70
2018-10-07T01:27:59.441Z,1.77
2018-10-07T01:30:27.939Z,1.70
2018-10-07T01:32:56.495Z,1.83
2018-10-07T01:35:25.311Z,1.60
2018-10-07T01:37:53.835Z,2.23
2018-10-07T01:40:22.423Z,1.70
2018-10-07T01:42:50.919Z,2.17
2018-10-07T01:45:19.444Z,2.07
2018-10-07T01:47:47.938Z,2.00
2018-10-07T01:50:16.494Z,1.87
2018-10-07T01:52:45.088Z,1.67
2018-10-07T01:55:13.695Z,1.70
2018-10-07T01:57:42.232Z,1.93
2018-10-07T02:00:10.828Z,1.97
2018-10-07T02:02:39.348Z,2.13
2018-10-07T02:05:08.004Z,2.20
2018-10-07T02:07:36.515Z,2.20
2018-10-07T02:10:05.119Z,1.80
2018-10-07T02:12:33.616Z,1.60
2018-10-07T02:15:04.037Z,2.40
2018-10-07T02:17:32.599Z,1.90
2018-10-07T02:20:02.543Z,1.80
2018-10-07T02:22:31.093Z,1.77
2018-10-07T02:24:59.663Z,1.50
2018-10-07T02:27:28.219Z,1.60
2018-10-07T02:29:56.776Z,1.60
2018-10-07T02:32:25.287Z,1.87
2018-10-07T02:34:53.836Z,1.60
2018-10-07T02:37:22.435Z,2.30
2018-10-07T02:39:50.950Z,2.37
2018-10-07T02:42:19.565Z,2.77
2018-10-07T02:44:48.081Z,2.60
2018-10-07T02:47:16.635Z,2.20
2018-10-07T02:49:45.199Z,1.93
2018-10-07T02:52:13.919Z,2.17
2018-10-07T02:54:42.547Z,2.37
2018-10-07T02:57:11.208Z,2.20
2018-10-07T02:59:39.820Z,2.17
2018-10-07T03:02:08.395Z,2.07
2018-10-07T03:04:36.986Z,1.77
2018-10-07T03:07:05.837Z,2.13
2018-10-07T03:09:34.347Z,1.87
2018-10-07T03:12:02.931Z,2.40
2018-10-07T03:14:31.513Z,1.77
2018-10-07T03:17:00.073Z,2.03
2018-10-07T03:19:28.627Z,1.77
2018-10-07T03:21:57.180Z,2.20
2018-10-07T03:24:25.692Z,1.50
2018-10-07T03:26:54.251Z,1.63
2018-10-07T03:29:22.820Z,1.87
2018-10-07T03:31:51.379Z,1.40
2018-10-07T03:34:19.946Z,1.60
2018-10-07T03:36:48.472Z,1.73
2018-10-07T03:39:17.047Z,1.93
2018-10-07T03:41:45.576Z,1.60
2018-10-07T03:44:14.137Z,1.80
2018-10-07T03:46:42.646Z,2.00
2018-10-07T03:49:11.265Z,2.00
2018-10-07T03:51:39.803Z,1.27
2018-10-07T03:54:08.355Z,2.17
2018-10-07T03:56:36.857Z,1.77
2018-10-07T03:59:05.420Z,2.10
2018-10-07T04:01:33.985Z,2.27
2018-10-07T04:04:02.516Z,1.50
2018-10-07T04:06:31.072Z,1.43
2018-10-07T04:08:59.625Z,1.87
2018-10-07T04:11:28.163Z,2.40
2018-10-07T04:13:56.725Z,2.17
2018-10-07T04:16:25.346Z,1.97
2018-10-07T04:18:53.910Z,1.63
2018-10-07T04:21:22.431Z,2.63
2018-10-07T04:23:51.014Z,2.33
2018-10-07T04:26:19.535Z,3.03
2018-10-07T04:28:48.054Z,1.87
2018-10-07T04:31:16.634Z,2.60
2018-10-07T04:33:45.157Z,2.23
2018-10-07T04:36:13.755Z,2.83
2018-10-07T04:38:42.279Z,2.23
2018-10-07T04:41:10.877Z,2.07
2018-10-07T04:43:39.564Z,2.60
2018-10-07T04:46:08.122Z,2.27
2018-10-07T04:48:36.653Z,1.93
2018-10-07T04:51:05.260Z,1.90
2018-10-07T04:53:33.807Z,2.60
2018-10-07T04:56:02.603Z,1.97
2018-10-07T04:58:31.203Z,2.27
2018-10-07T05:00:59.967Z,2.10
2018-10-07T05:03:28.489Z,2.20
2018-10-07T05:05:57.163Z,2.03
2018-10-07T05:08:25.990Z,2.20
2018-10-07T05:10:55.889Z,2.47
2018-10-07T05:13:26.347Z,2.03
2018-10-07T05:15:59.185Z,1.83
2018-10-07T05:18:27.723Z,2.07
2018-10-07T05:20:56.404Z,2.47
2018-10-07T05:23:24.918Z,2.37
2018-10-07T05:25:53.488Z,2.43
2018-10-07T05:28:22.075Z,2.10
2018-10-07T05:30:50.596Z,2.63
2018-10-07T05:33:19.127Z,1.97
2018-10-07T05:35:47.689Z,1.97
2018-10-07T05:38:16.236Z,2.20
2018-10-07T05:40:44.855Z,1.83
2018-10-07T05:43:13.424Z,3.33
2018-10-07T05:45:41.981Z,2.17
2018-10-07T05:48:10.571Z,2.50
2018-10-07T05:50:39.155Z,2.20
2018-10-07T05:53:07.730Z,2.23
2018-10-07T05:55:36.334Z,2.40
2018-10-07T05:58:06.431Z,2.33
2018-10-07T06:00:36.559Z,2.30
2018-10-07T06:03:24.374Z,2.53
2018-10-07T06:05:53.368Z,2.50
2018-10-07T06:08:22.761Z,2.60
2018-10-07T06:10:51.363Z,2.87
2018-10-07T06:13:19.928Z,2.57
2018-10-07T06:15:48.516Z,3.07
2018-10-07T06:18:17.111Z,3.23
2018-10-07T06:20:45.651Z,2.43
2018-10-07T06:23:14.179Z,2.93
2018-10-07T06:25:42.771Z,2.77
2018-10-07T06:28:11.301Z,3.07
2018-10-07T06:30:39.887Z,2.37
2018-10-07T06:33:08.416Z,4.00
2018-10-07T06:35:37.008Z,4.27
2018-10-07T06:38:05.615Z,3.07
2018-10-07T06:40:34.207Z,2.67
2018-10-07T06:43:02.787Z,2.50
2018-10-07T06:45:31.418Z,2.63
2018-10-07T06:47:59.927Z,2.60
2018-10-07T06:50:28.503Z,2.70
2018-10-07T06:52:57.036Z,2.87
2018-10-07T06:55:25.596Z,2.63
2018-10-07T06:57:54.143Z,2.53
2018-10-07T07:00:22.716Z,3.37
2018-10-07T07:02:51.265Z,3.30
2018-10-07T07:05:19.800Z,3.80
2018-10-07T07:07:48.327Z,2.60
2018-10-07T07:10:16.885Z,3.43
2018-10-07T07:12:45.428Z,3.53
2018-10-07T07:15:14.048Z,3.30
2018-10-07T07:17:42.619Z,3.57
2018-10-07T07:20:11.336Z,3.67
2018-10-07T07:22:39.877Z,2.83
2018-10-07T07:25:08.437Z,3.43
2018-10-07T07:27:37.009Z,3.10
2018-10-07T07:30:05.582Z,3.73
2018-10-07T07:32:34.127Z,3.33
2018-10-07T07:35:02.675Z,4.50
2018-10-07T07:37:31.229Z,4.17
2018-10-07T07:39:59.777Z,4.40
2018-10-07T07:42:28.379Z,2.90
2018-10-07T07:44:56.894Z,3.23
2018-10-07T07:47:25.471Z,3.43
2018-10-07T07:49:54.007Z,3.20
2018-10-07T07:52:22.814Z,2.63
2018-10-07T07:54:51.363Z,3.77
2018-10-07T07:57:19.967Z,3.63
2018-10-07T07:59:48.509Z,2.77
2018-10-07T08:02:17.083Z,3.20
2018-10-07T08:04:45.646Z,3.10
2018-10-07T08:07:14.249Z,2.73
2018-10-07T08:09:42.740Z,2.50
2018-10-07T08:12:11.292Z,3.23
2018-10-07T08:14:39.827Z,3.20
2018-10-07T08:17:08.455Z,3.27
2018-10-07T08:19:36.975Z,3.37
2018-10-07T08:22:05.626Z,3.27
2018-10-07T08:24:34.172Z,3.50
2018-10-07T08:27:07.805Z,2.80
2018-10-07T08:29:36.361Z,3.37
2018-10-07T08:32:04.925Z,3.10
2018-10-07T08:34:33.478Z,2.80
2018-10-07T08:37:02.066Z,3.53
2018-10-07T08:39:30.617Z,2.77
2018-10-07T08:41:59.164Z,2.70
2018-10-07T08:44:27.738Z,2.73
2018-10-07T08:46:56.298Z,3.13
2018-10-07T08:49:24.856Z,2.80
2018-10-07T08:51:53.386Z,3.07
2018-10-07T08:54:21.954Z,2.27
2018-10-07T08:56:50.488Z,2.37
2018-10-07T08:59:19.164Z,3.17
2018-10-07T09:01:47.807Z,3.03
2018-10-07T09:04:16.968Z,2.23
2018-10-07T09:06:45.525Z,2.87
2018-10-07T09:09:17.724Z,2.87
2018-10-07T09:11:46.216Z,2.90
2018-10-07T09:14:14.756Z,3.77
2018-10-07T09:16:43.428Z,3.43
2018-10-07T09:19:11.944Z,3.90
2018-10-07T09:21:40.994Z,3.20
2018-10-07T09:24:09.632Z,2.03
2018-10-07T09:26:38.264Z,2.60
2018-10-07T09:29:06.839Z,2.77
2018-10-07T09:31:35.458Z,3.93
2018-10-07T09:34:04.031Z,2.87
2018-10-07T09:36:32.715Z,2.53
2018-10-07T09:39:07.333Z,2.67
2018-10-07T09:41:35.907Z,2.30
2018-10-07T09:44:04.464Z,2.43
2018-10-07T09:46:33.133Z,2.50
2018-10-07T09:49:01.744Z,2.53
2018-10-07T09:51:30.432Z,3.07
2018-10-07T09:53:58.980Z,2.33
2018-10-07T09:56:27.592Z,2.50
2018-10-07T09:58:56.140Z,2.40
2018-10-07T10:01:24.922Z,2.30
2018-10-07T10:03:54.407Z,2.43
2018-10-07T10:06:23.171Z,2.63
2018-10-07T10:08:51.750Z,2.20
2018-10-07T10:11:22.812Z,2.30
2018-10-07T10:13:52.318Z,3.07
2018-10-07T10:16:31.632Z,2.40
2018-10-07T10:19:00.315Z,2.50
2018-10-07T10:21:39.025Z,2.83
2018-10-07T10:26:20.042Z,2.73
2018-10-07T10:29:27.090Z,2.70
2018-10-07T10:34:14.203Z,2.60
2018-10-07T10:37:16.915Z,1.50
2018-10-07T10:39:52.979Z,2.00
2018-10-07T10:43:32.292Z,1.40
2018-10-07T10:46:11.511Z,1.40
2018-10-07T10:49:54.701Z,1.63
2018-10-07T10:52:32.199Z,1.17
2018-10-07T10:55:11.534Z,1.30
2018-10-07T10:57:45.518Z,1.50
2018-10-07T11:00:20.930Z,1.10
2018-10-07T11:05:05.775Z,1.40
2018-10-07T11:08:12.798Z,1.60
2018-10-07T11:11:46.526Z,1.77
2018-10-07T11:15:37.701Z,1.20
2018-10-07T11:18:13.238Z,0.97
2018-10-07T11:20:56.032Z,1.33
2018-10-07T11:23:38.680Z,1.33
2018-10-07T11:26:16.897Z,1.20
2018-10-07T11:28:54.974Z,1.00
2018-10-07T11:31:47.319Z,1.50
2018-10-07T11:34:35.976Z,1.30
2018-10-07T11:37:11.350Z,1.20
2018-10-07T11:39:50.566Z,1.70
2018-10-07T11:42:26.265Z,1.33
2018-10-07T11:45:06.445Z,1.23
2018-10-07T11:49:49.206Z,1.33
2018-10-07T11:53:26.816Z,1.10
2018-10-07T11:55:56.570Z,1.37
2018-10-07T11:58:25.393Z,1.47
2018-10-07T12:00:54.154Z,1.60
2018-10-07T12:03:22.789Z,1.03
2018-10-07T12:05:51.476Z,1.00
2018-10-07T12:08:20.645Z,1.30
2018-10-07T12:10:49.638Z,1.50
2018-10-07T12:13:18.274Z,1.20
2018-10-07T12:15:47.672Z,1.47
2018-10-07T12:18:17.304Z,1.20
2018-10-07T12:20:46.037Z,1.40
2018-10-07T12:23:15.869Z,1.40
2018-10-07T12:25:44.410Z,1.57
2018-10-07T12:28:14.692Z,1.47
2018-10-07T12:30:44.758Z,1.27
2018-10-07T12:33:13.400Z,2.10
2018-10-07T12:35:42.383Z,1.80
2018-10-07T12:38:11.183Z,1.50
2018-10-07T12:40:39.692Z,1.40
2018-10-07T12:43:08.614Z,1.80
2018-10-07T12:45:37.141Z,2.07
2018-10-07T12:48:06.195Z,1.57
2018-10-07T12:50:34.826Z,1.27
2018-10-07T12:53:06.109Z,1.57
2018-10-07T12:55:34.794Z,1.80
2018-10-07T13:00:38.528Z,1.57
2018-10-07T13:03:07.444Z,1.70
2018-10-07T13:05:36.009Z,1.57
2018-10-07T13:08:06.594Z,1.30
2018-10-07T13:10:35.498Z,1.60
2018-10-07T13:13:04.209Z,2.17
2018-10-07T13:15:32.913Z,1.70
2018-10-07T13:18:06.135Z,2.10
2018-10-07T13:20:34.685Z,1.57
2018-10-07T13:23:03.239Z,1.70
2018-10-07T13:25:32.669Z,1.73
2018-10-07T13:28:01.515Z,1.77
2018-10-07T13:30:31.053Z,1.73
2018-10-07T13:33:00.673Z,2.07
2018-10-07T13:35:29.359Z,1.80
2018-10-07T13:37:57.905Z,1.87
2018-10-07T13:40:26.511Z,2.03
2018-10-07T13:42:55.049Z,1.77
2018-10-07T13:45:23.664Z,1.90
2018-10-07T13:47:52.420Z,1.37
2018-10-07T13:50:21.005Z,1.40
2018-10-07T13:52:49.656Z,1.23
2018-10-07T13:55:18.453Z,1.20
2018-10-07T13:57:47.032Z,1.20
2018-10-07T14:00:15.597Z,1.40
2018-10-07T14:02:44.113Z,0.93
2018-10-07T14:05:12.665Z,1.17
2018-10-07T14:07:41.222Z,1.40
2018-10-07T14:12:44.897Z,1.00
2018-10-07T14:15:15.549Z,1.20
2018-10-07T14:17:44.129Z,1.73
2018-10-07T14:20:12.667Z,1.03
2018-10-07T14:22:41.265Z,1.37
2018-10-07T14:25:09.813Z,1.40
2018-10-07T14:27:38.441Z,1.50
2018-10-07T14:30:07.022Z,1.30
2018-10-07T14:32:35.674Z,1.20
2018-10-07T14:35:04.306Z,1.47
2018-10-07T14:37:32.849Z,1.20
2018-10-07T14:40:04.136Z,1.37
2018-10-07T14:42:32.675Z,1.30
2018-10-07T14:45:03.557Z,1.30
2018-10-07T14:47:32.085Z,1.00
2018-10-07T14:50:00.647Z,1.33
2018-10-07T14:52:29.175Z,1.00
2018-10-07T14:54:57.755Z,1.47
2018-10-07T14:57:26.303Z,1.13
2018-10-07T14:59:55.103Z,1.23
2018-10-07T15:02:23.615Z,1.20
2018-10-07T15:04:52.475Z,1.23
2018-10-07T15:07:21.061Z,0.90
2018-10-07T15:09:49.658Z,1.13
2018-10-07T15:12:18.221Z,1.30
2018-10-07T15:14:46.743Z,1.70
2018-10-07T15:17:15.288Z,1.00
2018-10-07T15:19:43.833Z,1.37
2018-10-07T15:22:12.443Z,1.27
2018-10-07T15:24:41.095Z,1.60
2018-10-07T15:27:09.642Z,1.10
2018-10-07T15:29:38.155Z,0.90
2018-10-07T15:32:06.727Z,1.60
2018-10-07T15:34:35.291Z,1.33
2018-10-07T15:37:03.870Z,0.97
2018-10-07T15:39:32.350Z,1.17
2018-10-07T15:42:03.125Z,1.03
2018-10-07T15:44:31.660Z,1.43
2018-10-07T15:47:00.231Z,1.10
2018-10-07T15:49:28.729Z,1.30
2018-10-07T15:51:57.283Z,1.00
2018-10-07T15:54:25.929Z,0.80
2018-10-07T15:56:54.509Z,1.20
2018-10-07T15:59:23.137Z,1.20
2018-10-07T16:01:55.594Z,1.10
2018-10-07T16:04:27.318Z,1.00
2018-10-07T16:06:58.259Z,1.10
2018-10-07T16:09:28.192Z,1.47
2018-10-07T16:12:02.054Z,1.37
2018-10-07T16:14:32.633Z,1.13
2018-10-07T16:17:05.632Z,1.23
2018-10-07T16:19:34.262Z,0.93
2018-10-07T16:22:02.947Z,1.07
2018-10-07T16:24:31.605Z,1.20
2018-10-07T16:27:01.550Z,1.40
2018-10-07T16:29:30.242Z,1.00
2018-10-07T16:31:58.926Z,1.10
2018-10-07T16:34:27.515Z,1.00
2018-10-07T16:36:56.445Z,1.03
2018-10-07T16:39:25.032Z,0.90
2018-10-07T16:41:53.640Z,1.20
2018-10-07T16:44:22.310Z,1.23
2018-10-07T16:46:50.976Z,1.07
2018-10-07T16:49:19.587Z,1.20
2018-10-07T16:51:48.611Z,1.20
2018-10-07T16:54:17.147Z,1.20
2018-10-07T16:56:45.756Z,1.30
2018-10-07T16:59:14.351Z,2.50
2018-10-07T17:01:42.933Z,2.93
2018-10-07T17:04:11.549Z,3.30
2018-10-07T17:06:40.095Z,3.17
2018-10-07T17:09:09.515Z,2.17
2018-10-07T17:11:38.054Z,2.00
2018-10-07T17:14:06.807Z,1.37
2018-10-07T17:16:35.360Z,1.47
2018-10-07T17:19:03.948Z,1.53
2018-10-07T17:21:32.514Z,1.87
2018-10-07T17:24:03.331Z,1.60
2018-10-07T17:26:31.854Z,1.37
2018-10-07T17:29:00.407Z,1.33
2018-10-07T17:31:28.958Z,1.43
2018-10-07T17:33:57.515Z,1.40
2018-10-07T17:36:25.991Z,1.77
2018-10-07T17:38:54.536Z,1.47
2018-10-07T17:41:23.105Z,1.03
2018-10-07T17:43:51.633Z,1.27
2018-10-07T17:46:20.259Z,1.63
2018-10-07T17:48:48.952Z,1.27
2018-10-07T17:51:17.559Z,1.23
2018-10-07T17:53:46.114Z,1.53
2018-10-07T17:56:14.763Z,1.40
2018-10-07T17:58:44.435Z,1.50
2018-10-07T18:01:13.028Z,1.10
2018-10-07T18:03:41.783Z,1.27
2018-10-07T18:06:10.346Z,1.23
2018-10-07T18:08:39.493Z,0.97
2018-10-07T18:11:08.165Z,0.77
2018-10-07T18:13:36.737Z,0.90
2018-10-07T18:16:05.373Z,1.13
2018-10-07T18:18:33.917Z,1.50
2018-10-07T18:21:03.076Z,1.00
2018-10-07T18:23:31.593Z,1.20
2018-10-07T18:26:00.181Z,1.13
2018-10-07T18:28:28.723Z,1.13
2018-10-07T18:30:57.371Z,1.13
2018-10-07T18:33:25.891Z,1.50
2018-10-07T18:35:54.455Z,1.40
2018-10-07T18:38:22.996Z,1.00
2018-10-07T18:40:51.496Z,1.40
2018-10-07T18:43:20.205Z,1.30
2018-10-07T18:45:48.626Z,1.23
2018-10-07T18:48:19.725Z,1.77
2018-10-07T18:50:48.271Z,1.47
2018-10-07T18:53:16.831Z,1.60
2018-10-07T18:55:45.319Z,1.40
2018-10-07T18:58:13.875Z,1.50
2018-10-07T19:00:42.435Z,1.10
2018-10-07T19:03:11.206Z,1.10
2018-10-07T19:05:39.739Z,1.50
2018-10-07T19:08:08.546Z,1.30
2018-10-07T19:10:37.089Z,1.03
2018-10-07T19:13:05.716Z,1.00
2018-10-07T19:15:34.231Z,1.20
2018-10-07T19:18:03.300Z,1.10
2018-10-07T19:20:31.816Z,1.80
2018-10-07T19:23:00.386Z,1.30
2018-10-07T19:25:28.884Z,1.27
2018-10-07T19:27:57.562Z,1.37
2018-10-07T19:30:26.127Z,1.03
2018-10-07T19:32:54.646Z,1.20
2018-10-07T19:35:23.198Z,1.27
2018-10-07T19:37:51.707Z,0.80
2018-10-07T19:40:20.264Z,1.10
2018-10-07T19:42:48.864Z,1.17
2018-10-07T19:45:17.459Z,1.13
2018-10-07T19:47:46.019Z,0.90
2018-10-07T19:50:14.543Z,1.17
2018-10-07T19:52:43.056Z,1.00
2018-10-07T19:55:11.647Z,1.30
2018-10-07T19:57:40.187Z,1.07
2018-10-07T20:00:09.527Z,1.20
2018-10-07T20:02:38.023Z,1.17
2018-10-07T20:05:06.577Z,1.20
2018-10-07T20:07:35.080Z,1.10
2018-10-07T20:10:05.295Z,1.10
2018-10-07T20:12:33.793Z,0.80
2018-10-07T20:15:02.404Z,0.90
2018-10-07T20:17:30.944Z,0.90
2018-10-07T20:19:59.568Z,0.83
2018-10-07T20:22:28.087Z,1.10
2018-10-07T20:24:56.634Z,1.00
2018-10-07T20:27:25.162Z,1.30
2018-10-07T20:29:53.693Z,0.90
2018-10-07T20:32:22.206Z,1.30
2018-10-07T20:34:50.726Z,0.93
2018-10-07T20:37:19.507Z,1.17
2018-10-07T20:39:48.006Z,0.93
2018-10-07T20:42:16.578Z,1.10
2018-10-07T20:44:45.075Z,1.37
2018-10-07T20:47:13.633Z,1.20
2018-10-07T20:49:42.201Z,0.80
2018-10-07T20:52:10.849Z,0.90
2018-10-07T20:54:39.349Z,1.20
2018-10-07T20:57:07.972Z,0.70
2018-10-07T20:59:36.615Z,0.87
2018-10-07T21:02:05.193Z,1.13
2018-10-07T21:04:33.711Z,1.03
2018-10-07T21:07:03.293Z,0.90
2018-10-07T21:09:31.805Z,0.97
2018-10-07T21:12:00.401Z,1.70
2018-10-07T21:14:28.935Z,1.30
2018-10-07T21:16:57.589Z,1.03
2018-10-07T21:19:26.082Z,1.37
2018-10-07T21:21:54.691Z,2.00
2018-10-07T21:24:23.231Z,1.40
2018-10-07T21:26:51.709Z,1.10
2018-10-07T21:29:20.299Z,1.50
2018-10-07T21:31:48.850Z,1.20
2018-10-07T21:34:19.519Z,1.10
2018-10-07T21:36:48.157Z,1.30
2018-10-07T21:39:16.755Z,2.00
2018-10-07T21:41:45.466Z,1.20
2018-10-07T21:44:13.939Z,1.07
2018-10-07T21:46:42.569Z,1.57
2018-10-07T21:49:11.142Z,1.43
2018-10-07T21:51:39.737Z,1.10
2018-10-07T21:54:08.314Z,1.33
2018-10-07T21:56:36.858Z,0.90
2018-10-07T21:59:05.776Z,1.30
2018-10-07T22:01:34.347Z,1.13
2018-10-07T22:04:02.937Z,1.07
2018-10-07T22:06:31.522Z,1.10
2018-10-07T22:09:00.110Z,1.20
2018-10-07T22:11:28.718Z,1.60
2018-10-07T22:13:57.283Z,1.50
2018-10-07T22:16:25.879Z,1.40
2018-10-07T22:18:54.426Z,1.40
2018-10-07T22:21:22.994Z,0.83
2018-10-07T22:23:51.582Z,1.37
2018-10-07T22:26:20.165Z,1.00
2018-10-07T22:28:48.665Z,1.40
2018-10-07T22:31:17.210Z,1.27
2018-10-07T22:33:45.729Z,1.20
2018-10-07T22:36:14.309Z,1.10
2018-10-07T22:38:42.843Z,1.47
2018-10-07T22:41:11.413Z,1.50
2018-10-07T22:43:39.942Z,1.20
2018-10-07T22:46:08.498Z,1.33
2018-10-07T22:48:37.016Z,1.63
2018-10-07T22:51:05.570Z,1.00
2018-10-07T22:53:34.065Z,1.37
2018-10-07T22:56:03.008Z,1.23
2018-10-07T22:58:31.519Z,1.50
2018-10-07T23:01:00.155Z,1.20
2018-10-07T23:03:28.655Z,0.90
2018-10-07T23:05:57.264Z,0.70
2018-10-07T23:08:25.759Z,1.00
2018-10-07T23:10:54.356Z,1.00
2018-10-07T23:13:22.915Z,1.17
2018-10-07T23:15:51.442Z,0.93
2018-10-07T23:18:20.028Z,1.40
2018-10-07T23:20:48.551Z,1.33
2018-10-07T23:23:17.121Z,1.37
2018-10-07T23:25:45.643Z,1.43
2018-10-07T23:28:14.186Z,0.97
2018-10-07T23:30:42.726Z,1.00
2018-10-07T23:33:11.282Z,1.40
2018-10-07T23:35:39.782Z,1.17
2018-10-07T23:38:08.348Z,1.00
2018-10-07T23:40:36.884Z,1.20
2018-10-07T23:43:05.434Z,1.20
2018-10-07T23:45:34.060Z,1.60
2018-10-07T23:48:02.606Z,1.23
2018-10-07T23:50:31.172Z,1.50
2018-10-07T23:52:59.851Z,2.57
2018-10-07T23:55:28.375Z,2.73
2018-10-07T23:57:56.956Z,3.33
